sensor_id;sensor_type;location;lat;lon;timestamp;P1;durP1;ratioP1;P2;durP2;ratioP2
22144;SDS011;11238;48.730;11.566;2022-10-31T00:02:11;14.82;;;4.60;;
22144;SDS011;11238;48.730;11.566;2022-10-31T00:04:37;10.18;;;5.40;;
22144;SDS011;11238;48.730;11.566;2022-10-31T00:07:03;7.00;;;5.18;;
22144;SDS011;11238;48.730;11.566;2022-10-31T00:09:29;12.00;;;5.95;;
22144;SDS011;11238;48.730;11.566;2022-10-31T00:11:55;12.75;;;5.70;;
22144;SDS011;11238;48.730;11.566;2022-10-31T00:14:20;15.15;;;5.57;;
22144;SDS011;11238;48.730;11.566;2022-10-31T00:16:46;8.88;;;5.63;;
22144;SDS011;11238;48.730;11.566;2022-10-31T00:19:12;8.55;;;4.88;;
22144;SDS011;11238;48.730;11.566;2022-10-31T00:21:38;7.68;;;5.43;;
22144;SDS011;11238;48.730;11.566;2022-10-31T00:24:04;13.38;;;6.03;;
22144;SDS011;11238;48.730;11.566;2022-10-31T00:26:31;19.13;;;5.57;;
22144;SDS011;11238;48.730;11.566;2022-10-31T00:28:57;10.20;;;6.18;;
22144;SDS011;11238;48.730;11.566;2022-10-31T00:31:25;7.95;;;5.38;;
22144;SDS011;11238;48.730;11.566;2022-10-31T00:33:51;9.60;;;5.38;;
22144;SDS011;11238;48.730;11.566;2022-10-31T00:36:18;7.63;;;5.50;;
22144;SDS011;11238;48.730;11.566;2022-10-31T00:38:45;10.65;;;5.63;;
22144;SDS011;11238;48.730;11.566;2022-10-31T00:41:12;8.55;;;5.45;;
22144;SDS011;11238;48.730;11.566;2022-10-31T00:43:40;6.30;;;4.68;;
22144;SDS011;11238;48.730;11.566;2022-10-31T00:46:06;6.18;;;4.32;;
22144;SDS011;11238;48.730;11.566;2022-10-31T00:48:32;14.30;;;5.00;;
22144;SDS011;11238;48.730;11.566;2022-10-31T00:50:58;12.60;;;5.35;;
22144;SDS011;11238;48.730;11.566;2022-10-31T00:53:24;9.57;;;5.55;;
22144;SDS011;11238;48.730;11.566;2022-10-31T00:55:50;7.00;;;5.20;;
22144;SDS011;11238;48.730;11.566;2022-10-31T00:58:17;8.85;;;5.22;;
22144;SDS011;11238;48.730;11.566;2022-10-31T01:00:43;19.02;;;5.30;;
22144;SDS011;11238;48.730;11.566;2022-10-31T01:03:09;16.90;;;5.70;;
22144;SDS011;11238;48.730;11.566;2022-10-31T01:05:38;7.30;;;5.13;;
22144;SDS011;11238;48.730;11.566;2022-10-31T01:08:04;10.45;;;5.55;;
22144;SDS011;11238;48.730;11.566;2022-10-31T01:10:30;12.50;;;5.55;;
22144;SDS011;11238;48.730;11.566;2022-10-31T01:12:56;6.30;;;4.90;;
22144;SDS011;11238;48.730;11.566;2022-10-31T01:15:23;11.02;;;5.00;;
22144;SDS011;11238;48.730;11.566;2022-10-31T01:17:49;7.13;;;5.20;;
22144;SDS011;11238;48.730;11.566;2022-10-31T01:20:15;10.73;;;5.03;;
22144;SDS011;11238;48.730;11.566;2022-10-31T01:22:42;6.88;;;5.00;;
22144;SDS011;11238;48.730;11.566;2022-10-31T01:25:08;9.02;;;5.57;;
22144;SDS011;11238;48.730;11.566;2022-10-31T01:27:34;8.10;;;5.40;;
22144;SDS011;11238;48.730;11.566;2022-10-31T01:30:00;6.72;;;5.28;;
22144;SDS011;11238;48.730;11.566;2022-10-31T01:32:26;9.10;;;5.15;;
22144;SDS011;11238;48.730;11.566;2022-10-31T01:34:54;8.05;;;4.95;;
22144;SDS011;11238;48.730;11.566;2022-10-31T01:37:20;11.95;;;5.32;;
22144;SDS011;11238;48.730;11.566;2022-10-31T01:39:47;7.22;;;5.53;;
22144;SDS011;11238;48.730;11.566;2022-10-31T01:42:20;8.90;;;5.47;;
22144;SDS011;11238;48.730;11.566;2022-10-31T01:44:52;16.60;;;5.78;;
22144;SDS011;11238;48.730;11.566;2022-10-31T01:47:31;7.57;;;4.90;;
22144;SDS011;11238;48.730;11.566;2022-10-31T01:50:05;22.25;;;5.57;;
22144;SDS011;11238;48.730;11.566;2022-10-31T01:52:38;7.63;;;5.22;;
22144;SDS011;11238;48.730;11.566;2022-10-31T01:55:12;10.38;;;5.18;;
22144;SDS011;11238;48.730;11.566;2022-10-31T01:57:43;15.05;;;5.50;;
22144;SDS011;11238;48.730;11.566;2022-10-31T02:00:16;7.00;;;5.28;;
22144;SDS011;11238;48.730;11.566;2022-10-31T02:02:44;12.15;;;5.88;;
22144;SDS011;11238;48.730;11.566;2022-10-31T02:05:19;9.63;;;6.00;;
22144;SDS011;11238;48.730;11.566;2022-10-31T02:08:04;8.00;;;5.30;;
22144;SDS011;11238;48.730;11.566;2022-10-31T02:10:42;7.87;;;5.33;;
22144;SDS011;11238;48.730;11.566;2022-10-31T02:13:09;8.38;;;5.05;;
22144;SDS011;11238;48.730;11.566;2022-10-31T02:15:43;17.33;;;5.55;;
22144;SDS011;11238;48.730;11.566;2022-10-31T02:18:11;10.73;;;5.45;;
22144;SDS011;11238;48.730;11.566;2022-10-31T02:20:55;6.30;;;5.20;;
22144;SDS011;11238;48.730;11.566;2022-10-31T02:29:19;10.60;;;5.47;;
22144;SDS011;11238;48.730;11.566;2022-10-31T02:42:40;6.40;;;5.60;;
22144;SDS011;11238;48.730;11.566;2022-10-31T02:47:55;6.18;;;5.57;;
22144;SDS011;11238;48.730;11.566;2022-10-31T02:50:27;5.45;;;4.78;;
22144;SDS011;11238;48.730;11.566;2022-10-31T02:52:56;12.75;;;5.90;;
22144;SDS011;11238;48.730;11.566;2022-10-31T02:57:56;5.72;;;5.22;;
22144;SDS011;11238;48.730;11.566;2022-10-31T03:00:28;11.20;;;5.53;;
22144;SDS011;11238;48.730;11.566;2022-10-31T03:08:50;20.73;;;5.80;;
22144;SDS011;11238;48.730;11.566;2022-10-31T03:14:50;13.90;;;6.32;;
22144;SDS011;11238;48.730;11.566;2022-10-31T03:17:25;8.80;;;6.30;;
22144;SDS011;11238;48.730;11.566;2022-10-31T03:20:11;10.27;;;6.53;;
22144;SDS011;11238;48.730;11.566;2022-10-31T03:22:37;21.25;;;7.03;;
22144;SDS011;11238;48.730;11.566;2022-10-31T03:25:05;33.17;;;7.20;;
22144;SDS011;11238;48.730;11.566;2022-10-31T03:27:34;16.60;;;6.88;;
22144;SDS011;11238;48.730;11.566;2022-10-31T03:30:03;13.77;;;7.40;;
22144;SDS011;11238;48.730;11.566;2022-10-31T03:32:45;7.90;;;6.88;;
22144;SDS011;11238;48.730;11.566;2022-10-31T03:35:15;19.92;;;7.32;;
22144;SDS011;11238;48.730;11.566;2022-10-31T03:37:43;11.13;;;7.72;;
22144;SDS011;11238;48.730;11.566;2022-10-31T03:40:13;27.55;;;8.43;;
22144;SDS011;11238;48.730;11.566;2022-10-31T03:42:41;10.13;;;7.35;;
22144;SDS011;11238;48.730;11.566;2022-10-31T03:45:11;8.77;;;7.03;;
22144;SDS011;11238;48.730;11.566;2022-10-31T03:47:40;11.95;;;7.50;;
22144;SDS011;11238;48.730;11.566;2022-10-31T03:50:09;11.02;;;7.40;;
22144;SDS011;11238;48.730;11.566;2022-10-31T03:52:45;10.23;;;7.15;;
22144;SDS011;11238;48.730;11.566;2022-10-31T03:58:33;13.15;;;7.00;;
22144;SDS011;11238;48.730;11.566;2022-10-31T04:01:09;14.43;;;7.15;;
22144;SDS011;11238;48.730;11.566;2022-10-31T04:03:40;7.90;;;7.10;;
22144;SDS011;11238;48.730;11.566;2022-10-31T04:06:10;7.30;;;6.53;;
22144;SDS011;11238;48.730;11.566;2022-10-31T04:08:44;10.65;;;7.45;;
22144;SDS011;11238;48.730;11.566;2022-10-31T04:11:18;11.52;;;7.55;;
22144;SDS011;11238;48.730;11.566;2022-10-31T04:14:07;15.57;;;7.97;;
22144;SDS011;11238;48.730;11.566;2022-10-31T04:16:34;9.68;;;8.13;;
22144;SDS011;11238;48.730;11.566;2022-10-31T04:19:00;12.02;;;7.13;;
22144;SDS011;11238;48.730;11.566;2022-10-31T04:21:27;13.32;;;8.27;;
22144;SDS011;11238;48.730;11.566;2022-10-31T04:23:56;17.40;;;7.80;;
22144;SDS011;11238;48.730;11.566;2022-10-31T04:26:24;31.30;;;9.52;;
22144;SDS011;11238;48.730;11.566;2022-10-31T04:28:50;39.33;;;8.70;;
22144;SDS011;11238;48.730;11.566;2022-10-31T04:31:16;28.27;;;9.27;;
22144;SDS011;11238;48.730;11.566;2022-10-31T04:33:44;12.70;;;8.38;;
22144;SDS011;11238;48.730;11.566;2022-10-31T04:36:10;16.50;;;8.48;;
22144;SDS011;11238;48.730;11.566;2022-10-31T04:38:36;26.17;;;8.00;;
22144;SDS011;11238;48.730;11.566;2022-10-31T04:41:09;15.55;;;9.27;;
22144;SDS011;11238;48.730;11.566;2022-10-31T04:43:56;9.80;;;7.47;;
22144;SDS011;11238;48.730;11.566;2022-10-31T04:46:22;18.52;;;8.55;;
22144;SDS011;11238;48.730;11.566;2022-10-31T04:48:48;11.18;;;8.63;;
22144;SDS011;11238;48.730;11.566;2022-10-31T04:51:15;15.38;;;9.38;;
22144;SDS011;11238;48.730;11.566;2022-10-31T04:53:41;18.90;;;8.50;;
22144;SDS011;11238;48.730;11.566;2022-10-31T04:58:58;8.52;;;7.65;;
22144;SDS011;11238;48.730;11.566;2022-10-31T05:01:26;12.70;;;8.60;;
22144;SDS011;11238;48.730;11.566;2022-10-31T05:03:53;13.32;;;10.07;;
22144;SDS011;11238;48.730;11.566;2022-10-31T05:06:19;14.23;;;9.48;;
22144;SDS011;11238;48.730;11.566;2022-10-31T05:08:45;12.98;;;9.23;;
22144;SDS011;11238;48.730;11.566;2022-10-31T05:11:11;26.23;;;20.15;;
22144;SDS011;11238;48.730;11.566;2022-10-31T05:13:37;13.27;;;10.07;;
22144;SDS011;11238;48.730;11.566;2022-10-31T05:16:26;13.35;;;9.65;;
22144;SDS011;11238;48.730;11.566;2022-10-31T05:19:25;12.32;;;8.48;;
22144;SDS011;11238;48.730;11.566;2022-10-31T05:22:20;11.30;;;8.80;;
22144;SDS011;11238;48.730;11.566;2022-10-31T05:24:45;13.02;;;11.07;;
22144;SDS011;11238;48.730;11.566;2022-10-31T05:27:12;12.32;;;9.55;;
22144;SDS011;11238;48.730;11.566;2022-10-31T05:29:37;15.13;;;9.15;;
22144;SDS011;11238;48.730;11.566;2022-10-31T05:32:03;13.20;;;9.35;;
22144;SDS011;11238;48.730;11.566;2022-10-31T05:34:58;16.38;;;8.27;;
22144;SDS011;11238;48.730;11.566;2022-10-31T05:37:41;8.98;;;8.07;;
22144;SDS011;11238;48.730;11.566;2022-10-31T05:40:08;8.63;;;7.55;;
22144;SDS011;11238;48.730;11.566;2022-10-31T05:42:35;21.00;;;8.18;;
22144;SDS011;11238;48.730;11.566;2022-10-31T05:45:04;17.95;;;8.20;;
22144;SDS011;11238;48.730;11.566;2022-10-31T05:47:50;10.77;;;8.70;;
22144;SDS011;11238;48.730;11.566;2022-10-31T05:50:55;11.43;;;9.32;;
22144;SDS011;11238;48.730;11.566;2022-10-31T05:53:21;12.40;;;8.98;;
22144;SDS011;11238;48.730;11.566;2022-10-31T05:55:46;9.52;;;8.13;;
22144;SDS011;11238;48.730;11.566;2022-10-31T05:58:17;10.80;;;7.95;;
22144;SDS011;11238;48.730;11.566;2022-10-31T06:00:49;15.73;;;9.13;;
22144;SDS011;11238;48.730;11.566;2022-10-31T06:03:15;11.38;;;9.07;;
22144;SDS011;11238;48.730;11.566;2022-10-31T06:05:46;11.88;;;8.05;;
22144;SDS011;11238;48.730;11.566;2022-10-31T06:08:12;9.93;;;8.45;;
22144;SDS011;11238;48.730;11.566;2022-10-31T06:10:38;38.67;;;9.95;;
22144;SDS011;11238;48.730;11.566;2022-10-31T06:13:05;34.80;;;9.55;;
22144;SDS011;11238;48.730;11.566;2022-10-31T06:15:40;44.88;;;9.68;;
22144;SDS011;11238;48.730;11.566;2022-10-31T06:18:07;15.32;;;9.32;;
22144;SDS011;11238;48.730;11.566;2022-10-31T06:20:48;13.38;;;9.50;;
22144;SDS011;11238;48.730;11.566;2022-10-31T06:23:21;29.33;;;9.70;;
22144;SDS011;11238;48.730;11.566;2022-10-31T06:25:51;48.08;;;10.05;;
22144;SDS011;11238;48.730;11.566;2022-10-31T06:28:18;36.17;;;10.23;;
22144;SDS011;11238;48.730;11.566;2022-10-31T06:30:59;56.83;;;10.82;;
22144;SDS011;11238;48.730;11.566;2022-10-31T06:33:25;12.50;;;10.40;;
22144;SDS011;11238;48.730;11.566;2022-10-31T06:36:00;23.30;;;9.38;;
22144;SDS011;11238;48.730;11.566;2022-10-31T06:38:27;14.93;;;11.30;;
22144;SDS011;11238;48.730;11.566;2022-10-31T06:40:53;16.65;;;10.43;;
22144;SDS011;11238;48.730;11.566;2022-10-31T06:43:25;59.42;;;11.55;;
22144;SDS011;11238;48.730;11.566;2022-10-31T06:46:11;14.43;;;10.65;;
22144;SDS011;11238;48.730;11.566;2022-10-31T06:48:41;22.35;;;10.70;;
22144;SDS011;11238;48.730;11.566;2022-10-31T06:51:17;17.58;;;11.02;;
22144;SDS011;11238;48.730;11.566;2022-10-31T06:53:43;24.10;;;11.85;;
22144;SDS011;11238;48.730;11.566;2022-10-31T06:56:11;19.45;;;12.38;;
22144;SDS011;11238;48.730;11.566;2022-10-31T06:58:45;48.33;;;20.50;;
22144;SDS011;11238;48.730;11.566;2022-10-31T07:01:12;60.42;;;16.58;;
22144;SDS011;11238;48.730;11.566;2022-10-31T07:03:38;18.13;;;13.38;;
22144;SDS011;11238;48.730;11.566;2022-10-31T07:06:04;21.73;;;11.20;;
22144;SDS011;11238;48.730;11.566;2022-10-31T07:08:31;18.10;;;11.20;;
22144;SDS011;11238;48.730;11.566;2022-10-31T07:10:57;19.67;;;10.90;;
22144;SDS011;11238;48.730;11.566;2022-10-31T07:13:23;20.13;;;11.98;;
22144;SDS011;11238;48.730;11.566;2022-10-31T07:15:59;51.53;;;17.42;;
22144;SDS011;11238;48.730;11.566;2022-10-31T07:18:26;32.90;;;15.27;;
22144;SDS011;11238;48.730;11.566;2022-10-31T07:20:53;28.50;;;13.43;;
22144;SDS011;11238;48.730;11.566;2022-10-31T07:23:19;53.08;;;12.93;;
22144;SDS011;11238;48.730;11.566;2022-10-31T07:25:56;25.30;;;12.68;;
22144;SDS011;11238;48.730;11.566;2022-10-31T07:28:30;29.33;;;12.52;;
22144;SDS011;11238;48.730;11.566;2022-10-31T07:30:58;30.45;;;14.07;;
22144;SDS011;11238;48.730;11.566;2022-10-31T07:33:24;35.53;;;14.13;;
22144;SDS011;11238;48.730;11.566;2022-10-31T07:36:11;22.88;;;14.68;;
22144;SDS011;11238;48.730;11.566;2022-10-31T07:38:41;30.52;;;15.65;;
22144;SDS011;11238;48.730;11.566;2022-10-31T07:41:06;45.72;;;14.10;;
22144;SDS011;11238;48.730;11.566;2022-10-31T07:43:37;33.78;;;13.73;;
22144;SDS011;11238;48.730;11.566;2022-10-31T07:46:26;30.17;;;13.65;;
22144;SDS011;11238;48.730;11.566;2022-10-31T07:49:10;59.72;;;14.82;;
22144;SDS011;11238;48.730;11.566;2022-10-31T07:51:41;39.13;;;12.98;;
22144;SDS011;11238;48.730;11.566;2022-10-31T07:54:26;30.83;;;10.93;;
22144;SDS011;11238;48.730;11.566;2022-10-31T07:56:52;40.45;;;12.27;;
22144;SDS011;11238;48.730;11.566;2022-10-31T07:59:18;30.45;;;12.07;;
22144;SDS011;11238;48.730;11.566;2022-10-31T08:01:44;44.50;;;13.48;;
22144;SDS011;11238;48.730;11.566;2022-10-31T08:04:33;33.53;;;13.60;;
22144;SDS011;11238;48.730;11.566;2022-10-31T08:07:17;44.38;;;12.65;;
22144;SDS011;11238;48.730;11.566;2022-10-31T08:09:50;37.03;;;15.33;;
22144;SDS011;11238;48.730;11.566;2022-10-31T08:12:22;29.67;;;13.32;;
22144;SDS011;11238;48.730;11.566;2022-10-31T08:14:48;23.77;;;14.00;;
22144;SDS011;11238;48.730;11.566;2022-10-31T08:17:17;29.88;;;13.77;;
22144;SDS011;11238;48.730;11.566;2022-10-31T08:19:54;47.63;;;13.35;;
22144;SDS011;11238;48.730;11.566;2022-10-31T08:22:26;26.77;;;12.68;;
22144;SDS011;11238;48.730;11.566;2022-10-31T08:24:52;27.52;;;12.98;;
22144;SDS011;11238;48.730;11.566;2022-10-31T08:27:19;22.58;;;13.32;;
22144;SDS011;11238;48.730;11.566;2022-10-31T08:29:46;27.23;;;13.50;;
22144;SDS011;11238;48.730;11.566;2022-10-31T08:32:12;23.50;;;13.60;;
22144;SDS011;11238;48.730;11.566;2022-10-31T08:34:59;22.08;;;13.40;;
22144;SDS011;11238;48.730;11.566;2022-10-31T08:37:44;22.83;;;12.65;;
22144;SDS011;11238;48.730;11.566;2022-10-31T08:40:10;27.75;;;12.70;;
22144;SDS011;11238;48.730;11.566;2022-10-31T08:42:39;26.08;;;12.52;;
22144;SDS011;11238;48.730;11.566;2022-10-31T08:45:05;28.13;;;13.63;;
22144;SDS011;11238;48.730;11.566;2022-10-31T08:47:32;24.52;;;13.85;;
22144;SDS011;11238;48.730;11.566;2022-10-31T08:49:57;44.90;;;14.15;;
22144;SDS011;11238;48.730;11.566;2022-10-31T08:52:23;126.53;;;22.88;;
22144;SDS011;11238;48.730;11.566;2022-10-31T08:54:56;80.10;;;19.40;;
22144;SDS011;11238;48.730;11.566;2022-10-31T09:00:35;29.50;;;13.40;;
22144;SDS011;11238;48.730;11.566;2022-10-31T09:03:17;31.45;;;13.88;;
22144;SDS011;11238;48.730;11.566;2022-10-31T09:05:44;28.17;;;14.45;;
22144;SDS011;11238;48.730;11.566;2022-10-31T09:08:11;43.55;;;14.27;;
22144;SDS011;11238;48.730;11.566;2022-10-31T09:10:38;36.03;;;14.38;;
22144;SDS011;11238;48.730;11.566;2022-10-31T09:13:10;27.25;;;13.88;;
22144;SDS011;11238;48.730;11.566;2022-10-31T09:16:16;49.65;;;13.98;;
22144;SDS011;11238;48.730;11.566;2022-10-31T09:18:42;59.92;;;13.98;;
22144;SDS011;11238;48.730;11.566;2022-10-31T09:21:08;22.20;;;14.05;;
22144;SDS011;11238;48.730;11.566;2022-10-31T09:23:34;25.70;;;15.07;;
22144;SDS011;11238;48.730;11.566;2022-10-31T09:26:03;58.88;;;15.95;;
22144;SDS011;11238;48.730;11.566;2022-10-31T09:28:30;26.70;;;16.05;;
22144;SDS011;11238;48.730;11.566;2022-10-31T09:31:01;49.03;;;16.10;;
22144;SDS011;11238;48.730;11.566;2022-10-31T09:33:46;34.00;;;16.70;;
22144;SDS011;11238;48.730;11.566;2022-10-31T09:36:32;28.50;;;15.85;;
22144;SDS011;11238;48.730;11.566;2022-10-31T09:38:58;27.65;;;18.40;;
22144;SDS011;11238;48.730;11.566;2022-10-31T09:41:26;32.50;;;18.55;;
22144;SDS011;11238;48.730;11.566;2022-10-31T09:44:18;30.85;;;19.33;;
22144;SDS011;11238;48.730;11.566;2022-10-31T09:52:28;40.42;;;20.15;;
22144;SDS011;11238;48.730;11.566;2022-10-31T09:55:16;33.25;;;20.08;;
22144;SDS011;11238;48.730;11.566;2022-10-31T09:57:45;39.63;;;20.52;;
22144;SDS011;11238;48.730;11.566;2022-10-31T10:00:18;37.40;;;20.83;;
22144;SDS011;11238;48.730;11.566;2022-10-31T10:02:48;36.92;;;21.70;;
22144;SDS011;11238;48.730;11.566;2022-10-31T10:05:21;34.65;;;21.20;;
22144;SDS011;11238;48.730;11.566;2022-10-31T10:11:25;55.70;;;20.98;;
22144;SDS011;11238;48.730;11.566;2022-10-31T10:14:27;49.08;;;21.48;;
22144;SDS011;11238;48.730;11.566;2022-10-31T10:35:26;38.40;;;23.58;;
22144;SDS011;11238;48.730;11.566;2022-10-31T10:41:14;36.38;;;23.35;;
22144;SDS011;11238;48.730;11.566;2022-10-31T10:43:43;38.13;;;22.48;;
22144;SDS011;11238;48.730;11.566;2022-10-31T10:46:16;101.80;;;23.38;;
22144;SDS011;11238;48.730;11.566;2022-10-31T10:59:51;39.25;;;24.38;;
22144;SDS011;11238;48.730;11.566;2022-10-31T11:02:18;43.83;;;25.98;;
22144;SDS011;11238;48.730;11.566;2022-10-31T11:04:49;49.45;;;28.17;;
22144;SDS011;11238;48.730;11.566;2022-10-31T11:07:18;44.22;;;27.83;;
22144;SDS011;11238;48.730;11.566;2022-10-31T11:09:44;49.30;;;28.02;;
22144;SDS011;11238;48.730;11.566;2022-10-31T11:12:24;71.05;;;27.52;;
22144;SDS011;11238;48.730;11.566;2022-10-31T11:14:55;37.72;;;23.60;;
22144;SDS011;11238;48.730;11.566;2022-10-31T11:17:27;65.20;;;34.42;;
22144;SDS011;11238;48.730;11.566;2022-10-31T11:22:37;38.72;;;24.70;;
22144;SDS011;11238;48.730;11.566;2022-10-31T11:27:45;47.65;;;29.38;;
22144;SDS011;11238;48.730;11.566;2022-10-31T11:30:12;39.65;;;26.05;;
22144;SDS011;11238;48.730;11.566;2022-10-31T11:32:49;44.15;;;25.73;;
22144;SDS011;11238;48.730;11.566;2022-10-31T11:35:18;40.72;;;25.15;;
22144;SDS011;11238;48.730;11.566;2022-10-31T11:37:45;41.35;;;25.77;;
22144;SDS011;11238;48.730;11.566;2022-10-31T11:42:46;51.28;;;29.08;;
22144;SDS011;11238;48.730;11.566;2022-10-31T11:45:15;53.70;;;31.88;;
22144;SDS011;11238;48.730;11.566;2022-10-31T11:47:47;52.67;;;29.60;;
22144;SDS011;11238;48.730;11.566;2022-10-31T11:50:36;52.85;;;29.00;;
22144;SDS011;11238;48.730;11.566;2022-10-31T11:53:47;62.22;;;31.70;;
22144;SDS011;11238;48.730;11.566;2022-10-31T11:56:03;47.33;;;27.55;;
22144;SDS011;11238;48.730;11.566;2022-10-31T11:58:30;49.42;;;27.90;;
22144;SDS011;11238;48.730;11.566;2022-10-31T12:00:56;49.28;;;30.45;;
22144;SDS011;11238;48.730;11.566;2022-10-31T12:08:34;55.38;;;32.17;;
22144;SDS011;11238;48.730;11.566;2022-10-31T12:13:37;62.40;;;35.80;;
22144;SDS011;11238;48.730;11.566;2022-10-31T12:30:20;59.88;;;34.38;;
22144;SDS011;11238;48.730;11.566;2022-10-31T12:36:08;59.88;;;36.85;;
22144;SDS011;11238;48.730;11.566;2022-10-31T12:39:06;60.17;;;36.05;;
22144;SDS011;11238;48.730;11.566;2022-10-31T12:50:51;71.15;;;37.58;;
22144;SDS011;11238;48.730;11.566;2022-10-31T12:53:53;60.90;;;36.50;;
22144;SDS011;11238;48.730;11.566;2022-10-31T12:56:37;65.28;;;37.92;;
22144;SDS011;11238;48.730;11.566;2022-10-31T12:59:17;68.72;;;37.38;;
22144;SDS011;11238;48.730;11.566;2022-10-31T13:02:04;55.83;;;35.97;;
22144;SDS011;11238;48.730;11.566;2022-10-31T13:04:55;63.35;;;37.63;;
22144;SDS011;11238;48.730;11.566;2022-10-31T13:07:47;58.50;;;37.60;;
22144;SDS011;11238;48.730;11.566;2022-10-31T13:18:51;62.95;;;38.50;;
22144;SDS011;11238;48.730;11.566;2022-10-31T13:21:22;62.53;;;37.80;;
22144;SDS011;11238;48.730;11.566;2022-10-31T13:23:51;68.05;;;40.25;;
22144;SDS011;11238;48.730;11.566;2022-10-31T13:26:21;74.50;;;41.83;;
22144;SDS011;11238;48.730;11.566;2022-10-31T13:29:05;69.50;;;40.47;;
22144;SDS011;11238;48.730;11.566;2022-10-31T13:31:40;71.70;;;42.40;;
22144;SDS011;11238;48.730;11.566;2022-10-31T13:34:18;74.72;;;44.33;;
22144;SDS011;11238;48.730;11.566;2022-10-31T13:39:38;79.82;;;44.60;;
22144;SDS011;11238;48.730;11.566;2022-10-31T13:42:45;69.15;;;38.42;;
22144;SDS011;11238;48.730;11.566;2022-10-31T13:45:30;69.18;;;41.67;;
22144;SDS011;11238;48.730;11.566;2022-10-31T13:50:31;62.70;;;39.40;;
22144;SDS011;11238;48.730;11.566;2022-10-31T13:55:46;66.47;;;41.67;;
22144;SDS011;11238;48.730;11.566;2022-10-31T13:58:28;65.35;;;39.38;;
22144;SDS011;11238;48.730;11.566;2022-10-31T14:03:24;62.50;;;40.42;;
22144;SDS011;11238;48.730;11.566;2022-10-31T14:05:54;63.30;;;41.63;;
22144;SDS011;11238;48.730;11.566;2022-10-31T14:08:21;65.97;;;40.95;;
22144;SDS011;11238;48.730;11.566;2022-10-31T14:10:49;67.93;;;41.42;;
22144;SDS011;11238;48.730;11.566;2022-10-31T14:13:20;71.28;;;42.40;;
22144;SDS011;11238;48.730;11.566;2022-10-31T14:15:55;73.38;;;44.15;;
22144;SDS011;11238;48.730;11.566;2022-10-31T14:20:49;69.53;;;43.25;;
22144;SDS011;11238;48.730;11.566;2022-10-31T14:28:56;66.25;;;41.00;;
22144;SDS011;11238;48.730;11.566;2022-10-31T14:39:19;69.75;;;42.45;;
22144;SDS011;11238;48.730;11.566;2022-10-31T14:45:05;68.95;;;42.50;;
22144;SDS011;11238;48.730;11.566;2022-10-31T14:53:26;71.82;;;42.28;;
22144;SDS011;11238;48.730;11.566;2022-10-31T14:55:58;71.00;;;43.58;;
22144;SDS011;11238;48.730;11.566;2022-10-31T14:58:28;75.70;;;45.38;;
22144;SDS011;11238;48.730;11.566;2022-10-31T15:01:03;71.28;;;44.20;;
22144;SDS011;11238;48.730;11.566;2022-10-31T15:03:33;77.35;;;45.83;;
22144;SDS011;11238;48.730;11.566;2022-10-31T15:06:11;80.82;;;45.55;;
22144;SDS011;11238;48.730;11.566;2022-10-31T15:08:46;86.78;;;47.45;;
22144;SDS011;11238;48.730;11.566;2022-10-31T15:11:15;93.70;;;50.05;;
22144;SDS011;11238;48.730;11.566;2022-10-31T15:13:50;91.95;;;50.85;;
22144;SDS011;11238;48.730;11.566;2022-10-31T15:16:27;99.80;;;53.75;;
22144;SDS011;11238;48.730;11.566;2022-10-31T15:19:00;101.47;;;51.20;;
22144;SDS011;11238;48.730;11.566;2022-10-31T15:21:30;90.95;;;50.60;;
22144;SDS011;11238;48.730;11.566;2022-10-31T15:23:57;109.45;;;50.70;;
22144;SDS011;11238;48.730;11.566;2022-10-31T15:26:27;100.60;;;48.35;;
22144;SDS011;11238;48.730;11.566;2022-10-31T15:29:03;91.10;;;50.15;;
22144;SDS011;11238;48.730;11.566;2022-10-31T15:31:36;103.38;;;56.50;;
22144;SDS011;11238;48.730;11.566;2022-10-31T15:34:06;108.03;;;57.97;;
22144;SDS011;11238;48.730;11.566;2022-10-31T15:36:59;111.03;;;54.63;;
22144;SDS011;11238;48.730;11.566;2022-10-31T15:41:51;102.35;;;52.42;;
22144;SDS011;11238;48.730;11.566;2022-10-31T15:44:34;170.60;;;55.55;;
22144;SDS011;11238;48.730;11.566;2022-10-31T15:47:20;108.32;;;55.17;;
22144;SDS011;11238;48.730;11.566;2022-10-31T15:49:53;118.88;;;67.45;;
22144;SDS011;11238;48.730;11.566;2022-10-31T15:52:34;111.97;;;62.00;;
22144;SDS011;11238;48.730;11.566;2022-10-31T15:55:25;168.93;;;79.80;;
22144;SDS011;11238;48.730;11.566;2022-10-31T15:58:00;146.70;;;68.85;;
22144;SDS011;11238;48.730;11.566;2022-10-31T16:03:31;157.32;;;72.63;;
22144;SDS011;11238;48.730;11.566;2022-10-31T16:06:04;180.07;;;54.93;;
22144;SDS011;11238;48.730;11.566;2022-10-31T16:10:59;213.00;;;62.30;;
22144;SDS011;11238;48.730;11.566;2022-10-31T16:13:33;112.90;;;56.13;;
22144;SDS011;11238;48.730;11.566;2022-10-31T16:16:04;119.82;;;61.30;;
22144;SDS011;11238;48.730;11.566;2022-10-31T16:18:39;97.85;;;51.72;;
22144;SDS011;11238;48.730;11.566;2022-10-31T16:21:07;179.88;;;48.15;;
22144;SDS011;11238;48.730;11.566;2022-10-31T16:23:36;95.90;;;49.13;;
22144;SDS011;11238;48.730;11.566;2022-10-31T16:26:07;78.47;;;42.47;;
22144;SDS011;11238;48.730;11.566;2022-10-31T16:28:37;82.43;;;44.83;;
22144;SDS011;11238;48.730;11.566;2022-10-31T16:31:30;174.50;;;44.58;;
22144;SDS011;11238;48.730;11.566;2022-10-31T16:34:10;73.93;;;41.33;;
22144;SDS011;11238;48.730;11.566;2022-10-31T16:36:48;64.80;;;39.38;;
22144;SDS011;11238;48.730;11.566;2022-10-31T16:39:14;103.10;;;43.03;;
22144;SDS011;11238;48.730;11.566;2022-10-31T16:41:42;186.93;;;43.85;;
22144;SDS011;11238;48.730;11.566;2022-10-31T16:47:09;72.93;;;42.30;;
22144;SDS011;11238;48.730;11.566;2022-10-31T16:49:38;297.33;;;45.55;;
22144;SDS011;11238;48.730;11.566;2022-10-31T16:52:12;75.05;;;41.70;;
22144;SDS011;11238;48.730;11.566;2022-10-31T16:54:37;91.72;;;43.92;;
22144;SDS011;11238;48.730;11.566;2022-10-31T16:57:04;65.93;;;40.58;;
22144;SDS011;11238;48.730;11.566;2022-10-31T16:59:31;72.35;;;41.92;;
22144;SDS011;11238;48.730;11.566;2022-10-31T17:01:58;65.40;;;40.13;;
22144;SDS011;11238;48.730;11.566;2022-10-31T17:04:29;67.78;;;39.67;;
22144;SDS011;11238;48.730;11.566;2022-10-31T17:07:00;110.70;;;41.38;;
22144;SDS011;11238;48.730;11.566;2022-10-31T17:09:29;66.55;;;40.47;;
22144;SDS011;11238;48.730;11.566;2022-10-31T17:11:55;92.05;;;36.50;;
22144;SDS011;11238;48.730;11.566;2022-10-31T17:14:21;170.70;;;39.33;;
22144;SDS011;11238;48.730;11.566;2022-10-31T17:16:47;61.90;;;38.70;;
22144;SDS011;11238;48.730;11.566;2022-10-31T17:19:19;52.35;;;33.95;;
22144;SDS011;11238;48.730;11.566;2022-10-31T17:21:51;106.95;;;35.35;;
22144;SDS011;11238;48.730;11.566;2022-10-31T17:24:16;218.57;;;36.17;;
22144;SDS011;11238;48.730;11.566;2022-10-31T17:26:45;77.40;;;34.00;;
22144;SDS011;11238;48.730;11.566;2022-10-31T17:29:17;184.30;;;35.70;;
22144;SDS011;11238;48.730;11.566;2022-10-31T17:31:43;119.18;;;33.85;;
22144;SDS011;11238;48.730;11.566;2022-10-31T17:34:09;96.35;;;32.03;;
22144;SDS011;11238;48.730;11.566;2022-10-31T17:36:48;59.78;;;31.88;;
22144;SDS011;11238;48.730;11.566;2022-10-31T17:39:18;42.50;;;31.02;;
22144;SDS011;11238;48.730;11.566;2022-10-31T17:41:45;40.33;;;30.92;;